Terminal Aerodrome Forecast
Issued by NWS

Current Version | Previous Version | Text Only | Print | Product List | Glossary On
Versions: 1 2 3 4 5 6 7 8 9 10 11 12 13 14 15 16
000
FTUS42 KTAE 030540
TAFABY
TAF
KABY 030540Z 0306/0406 22006KT P6SM SCT005 SCT200
      TEMPO 0306/0310 BKN005
     FM031300 24010KT P6SM SCT040 BKN200
     FM032100 25010G15KT P6SM VCTS BKN050CB=

USA.gov is the U.S. government's official web portal to all federal, state and local government web resources and services.